sensor_id;sensor_type;location;lat;lon;timestamp;P1;durP1;ratioP1;P2;durP2;ratioP2
43700;SDS011;58809;47.984;7.964;2023-01-20T00:01:29;7.00;;;5.22;;
43700;SDS011;58809;47.984;7.964;2023-01-20T00:04:31;6.70;;;5.35;;
43700;SDS011;58809;47.984;7.964;2023-01-20T00:07:33;7.18;;;4.38;;
43700;SDS011;58809;47.984;7.964;2023-01-20T00:10:36;5.90;;;4.80;;
43700;SDS011;58809;47.984;7.964;2023-01-20T00:13:37;6.95;;;5.25;;
43700;SDS011;58809;47.984;7.964;2023-01-20T00:16:39;8.00;;;4.93;;
43700;SDS011;58809;47.984;7.964;2023-01-20T00:19:41;7.30;;;5.57;;
43700;SDS011;58809;47.984;7.964;2023-01-20T00:22:43;5.75;;;4.57;;
43700;SDS011;58809;47.984;7.964;2023-01-20T00:25:44;7.72;;;6.00;;
43700;SDS011;58809;47.984;7.964;2023-01-20T00:28:46;7.43;;;5.43;;
43700;SDS011;58809;47.984;7.964;2023-01-20T00:31:48;8.13;;;5.28;;
43700;SDS011;58809;47.984;7.964;2023-01-20T00:34:49;9.48;;;5.25;;
43700;SDS011;58809;47.984;7.964;2023-01-20T00:37:51;9.18;;;5.70;;
43700;SDS011;58809;47.984;7.964;2023-01-20T00:40:53;9.13;;;5.93;;
43700;SDS011;58809;47.984;7.964;2023-01-20T00:43:55;8.45;;;5.88;;
43700;SDS011;58809;47.984;7.964;2023-01-20T00:46:56;8.07;;;5.93;;
43700;SDS011;58809;47.984;7.964;2023-01-20T00:49:58;8.07;;;4.82;;
43700;SDS011;58809;47.984;7.964;2023-01-20T00:53:00;8.07;;;5.15;;
43700;SDS011;58809;47.984;7.964;2023-01-20T00:56:01;6.40;;;4.32;;
43700;SDS011;58809;47.984;7.964;2023-01-20T00:59:03;5.90;;;4.32;;
43700;SDS011;58809;47.984;7.964;2023-01-20T01:02:04;5.43;;;3.78;;
43700;SDS011;58809;47.984;7.964;2023-01-20T01:05:06;6.15;;;3.95;;
43700;SDS011;58809;47.984;7.964;2023-01-20T01:08:08;6.38;;;4.65;;
43700;SDS011;58809;47.984;7.964;2023-01-20T01:11:10;6.43;;;4.50;;
43700;SDS011;58809;47.984;7.964;2023-01-20T01:14:12;5.88;;;4.18;;
43700;SDS011;58809;47.984;7.964;2023-01-20T01:17:14;5.85;;;3.90;;
43700;SDS011;58809;47.984;7.964;2023-01-20T01:20:15;4.38;;;3.28;;
43700;SDS011;58809;47.984;7.964;2023-01-20T01:23:17;5.35;;;3.50;;
43700;SDS011;58809;47.984;7.964;2023-01-20T01:26:19;4.90;;;3.40;;
43700;SDS011;58809;47.984;7.964;2023-01-20T01:29:20;3.50;;;3.20;;
43700;SDS011;58809;47.984;7.964;2023-01-20T01:32:22;4.03;;;3.13;;
43700;SDS011;58809;47.984;7.964;2023-01-20T01:35:24;5.03;;;2.55;;
43700;SDS011;58809;47.984;7.964;2023-01-20T01:38:26;2.50;;;2.20;;
43700;SDS011;58809;47.984;7.964;2023-01-20T01:41:28;3.00;;;1.95;;
43700;SDS011;58809;47.984;7.964;2023-01-20T01:44:30;3.58;;;2.53;;
43700;SDS011;58809;47.984;7.964;2023-01-20T01:47:32;4.47;;;2.75;;
43700;SDS011;58809;47.984;7.964;2023-01-20T01:50:36;4.03;;;3.00;;
43700;SDS011;58809;47.984;7.964;2023-01-20T01:53:43;4.38;;;2.60;;
43700;SDS011;58809;47.984;7.964;2023-01-20T01:56:47;4.55;;;2.92;;
43700;SDS011;58809;47.984;7.964;2023-01-20T01:59:51;4.05;;;2.90;;
43700;SDS011;58809;47.984;7.964;2023-01-20T02:02:52;4.28;;;2.45;;
43700;SDS011;58809;47.984;7.964;2023-01-20T02:05:55;3.20;;;2.73;;
43700;SDS011;58809;47.984;7.964;2023-01-20T02:08:59;3.60;;;2.55;;
43700;SDS011;58809;47.984;7.964;2023-01-20T02:12:04;2.78;;;2.20;;
43700;SDS011;58809;47.984;7.964;2023-01-20T02:15:09;5.40;;;2.45;;
43700;SDS011;58809;47.984;7.964;2023-01-20T02:18:22;3.03;;;2.00;;
43700;SDS011;58809;47.984;7.964;2023-01-20T02:25:08;3.13;;;2.28;;
43700;SDS011;58809;47.984;7.964;2023-01-20T02:28:44;4.57;;;2.75;;
43700;SDS011;58809;47.984;7.964;2023-01-20T02:32:46;3.70;;;2.22;;
43700;SDS011;58809;47.984;7.964;2023-01-20T02:36:01;2.78;;;1.98;;
43700;SDS011;58809;47.984;7.964;2023-01-20T02:42:52;2.60;;;2.10;;
43700;SDS011;58809;47.984;7.964;2023-01-20T02:46:04;3.40;;;2.17;;
43700;SDS011;58809;47.984;7.964;2023-01-20T02:49:16;3.00;;;2.65;;
43700;SDS011;58809;47.984;7.964;2023-01-20T02:52:25;2.00;;;1.80;;
43700;SDS011;58809;47.984;7.964;2023-01-20T02:55:37;2.70;;;2.30;;
43700;SDS011;58809;47.984;7.964;2023-01-20T02:58:46;2.38;;;2.05;;
43700;SDS011;58809;47.984;7.964;2023-01-20T03:01:52;3.17;;;1.90;;
43700;SDS011;58809;47.984;7.964;2023-01-20T03:05:04;2.90;;;1.98;;
43700;SDS011;58809;47.984;7.964;2023-01-20T03:08:10;4.15;;;2.22;;
43700;SDS011;58809;47.984;7.964;2023-01-20T03:11:14;2.15;;;1.95;;
43700;SDS011;58809;47.984;7.964;2023-01-20T03:14:16;4.60;;;2.30;;
43700;SDS011;58809;47.984;7.964;2023-01-20T03:17:18;3.17;;;2.28;;
43700;SDS011;58809;47.984;7.964;2023-01-20T03:20:20;2.97;;;1.80;;
43700;SDS011;58809;47.984;7.964;2023-01-20T03:23:22;2.08;;;1.85;;
43700;SDS011;58809;47.984;7.964;2023-01-20T03:26:26;2.13;;;1.63;;
43700;SDS011;58809;47.984;7.964;2023-01-20T03:29:28;2.63;;;1.35;;
43700;SDS011;58809;47.984;7.964;2023-01-20T03:32:30;2.38;;;1.83;;
43700;SDS011;58809;47.984;7.964;2023-01-20T03:35:33;2.55;;;1.85;;
43700;SDS011;58809;47.984;7.964;2023-01-20T03:38:34;1.63;;;1.52;;
43700;SDS011;58809;47.984;7.964;2023-01-20T03:54:14;2.90;;;1.75;;
43700;SDS011;58809;47.984;7.964;2023-01-20T03:57:25;2.97;;;2.13;;
43700;SDS011;58809;47.984;7.964;2023-01-20T04:00:33;3.33;;;1.70;;
43700;SDS011;58809;47.984;7.964;2023-01-20T04:03:39;2.42;;;1.52;;
43700;SDS011;58809;47.984;7.964;2023-01-20T04:06:45;1.95;;;1.70;;
43700;SDS011;58809;47.984;7.964;2023-01-20T04:09:51;1.90;;;1.67;;
43700;SDS011;58809;47.984;7.964;2023-01-20T04:12:56;3.05;;;2.15;;
43700;SDS011;58809;47.984;7.964;2023-01-20T04:15:58;3.20;;;1.92;;
43700;SDS011;58809;47.984;7.964;2023-01-20T04:25:28;2.88;;;2.13;;
43700;SDS011;58809;47.984;7.964;2023-01-20T04:28:31;2.25;;;1.42;;
43700;SDS011;58809;47.984;7.964;2023-01-20T04:31:33;2.60;;;1.88;;
43700;SDS011;58809;47.984;7.964;2023-01-20T04:34:35;3.10;;;1.98;;
43700;SDS011;58809;47.984;7.964;2023-01-20T04:37:37;1.85;;;1.63;;
43700;SDS011;58809;47.984;7.964;2023-01-20T04:40:38;1.98;;;1.63;;
43700;SDS011;58809;47.984;7.964;2023-01-20T04:43:42;4.75;;;2.58;;
43700;SDS011;58809;47.984;7.964;2023-01-20T04:46:45;3.00;;;2.05;;
43700;SDS011;58809;47.984;7.964;2023-01-20T04:49:47;3.17;;;1.83;;
43700;SDS011;58809;47.984;7.964;2023-01-20T04:52:49;2.80;;;2.45;;
43700;SDS011;58809;47.984;7.964;2023-01-20T04:55:55;2.10;;;1.60;;
43700;SDS011;58809;47.984;7.964;2023-01-20T04:58:57;1.90;;;1.80;;
43700;SDS011;58809;47.984;7.964;2023-01-20T05:01:58;1.92;;;1.83;;
43700;SDS011;58809;47.984;7.964;2023-01-20T05:05:00;2.88;;;1.55;;
43700;SDS011;58809;47.984;7.964;2023-01-20T05:08:02;2.80;;;2.25;;
43700;SDS011;58809;47.984;7.964;2023-01-20T05:11:05;3.50;;;1.83;;
43700;SDS011;58809;47.984;7.964;2023-01-20T05:14:07;4.47;;;2.30;;
43700;SDS011;58809;47.984;7.964;2023-01-20T05:17:08;4.35;;;2.67;;
43700;SDS011;58809;47.984;7.964;2023-01-20T05:20:10;6.15;;;4.13;;
43700;SDS011;58809;47.984;7.964;2023-01-20T05:23:11;5.20;;;3.47;;
43700;SDS011;58809;47.984;7.964;2023-01-20T05:26:13;3.63;;;2.08;;
43700;SDS011;58809;47.984;7.964;2023-01-20T05:29:14;3.17;;;2.33;;
43700;SDS011;58809;47.984;7.964;2023-01-20T05:32:16;2.88;;;2.17;;
43700;SDS011;58809;47.984;7.964;2023-01-20T05:35:18;2.50;;;2.20;;
43700;SDS011;58809;47.984;7.964;2023-01-20T05:38:19;5.05;;;3.17;;
43700;SDS011;58809;47.984;7.964;2023-01-20T05:41:21;6.10;;;4.13;;
43700;SDS011;58809;47.984;7.964;2023-01-20T05:44:22;4.20;;;3.40;;
43700;SDS011;58809;47.984;7.964;2023-01-20T05:47:24;4.38;;;3.40;;
43700;SDS011;58809;47.984;7.964;2023-01-20T05:50:26;20.25;;;11.93;;
43700;SDS011;58809;47.984;7.964;2023-01-20T05:53:28;9.18;;;6.05;;
43700;SDS011;58809;47.984;7.964;2023-01-20T05:56:30;8.60;;;4.82;;
43700;SDS011;58809;47.984;7.964;2023-01-20T05:59:31;6.38;;;4.43;;
43700;SDS011;58809;47.984;7.964;2023-01-20T06:02:33;6.65;;;4.50;;
43700;SDS011;58809;47.984;7.964;2023-01-20T06:05:34;5.55;;;3.60;;
43700;SDS011;58809;47.984;7.964;2023-01-20T06:08:36;7.43;;;4.20;;
43700;SDS011;58809;47.984;7.964;2023-01-20T06:11:37;6.25;;;3.67;;
43700;SDS011;58809;47.984;7.964;2023-01-20T06:14:39;4.50;;;3.30;;
43700;SDS011;58809;47.984;7.964;2023-01-20T06:17:40;15.10;;;11.27;;
43700;SDS011;58809;47.984;7.964;2023-01-20T06:20:42;21.52;;;15.00;;
43700;SDS011;58809;47.984;7.964;2023-01-20T06:23:44;6.45;;;5.20;;
43700;SDS011;58809;47.984;7.964;2023-01-20T06:27:04;5.13;;;3.90;;
43700;SDS011;58809;47.984;7.964;2023-01-20T06:30:06;5.45;;;3.13;;
43700;SDS011;58809;47.984;7.964;2023-01-20T06:33:09;4.97;;;3.33;;
43700;SDS011;58809;47.984;7.964;2023-01-20T06:36:11;4.03;;;3.42;;
43700;SDS011;58809;47.984;7.964;2023-01-20T06:39:14;7.68;;;3.97;;
43700;SDS011;58809;47.984;7.964;2023-01-20T06:42:15;5.47;;;3.85;;
43700;SDS011;58809;47.984;7.964;2023-01-20T06:45:17;6.82;;;5.00;;
43700;SDS011;58809;47.984;7.964;2023-01-20T06:48:19;6.30;;;5.15;;
43700;SDS011;58809;47.984;7.964;2023-01-20T06:51:20;6.00;;;5.40;;
43700;SDS011;58809;47.984;7.964;2023-01-20T06:54:22;6.13;;;4.60;;
43700;SDS011;58809;47.984;7.964;2023-01-20T06:57:24;7.53;;;4.72;;
43700;SDS011;58809;47.984;7.964;2023-01-20T07:00:25;7.75;;;4.90;;
43700;SDS011;58809;47.984;7.964;2023-01-20T07:03:27;7.75;;;5.30;;
43700;SDS011;58809;47.984;7.964;2023-01-20T07:06:29;9.77;;;5.20;;
43700;SDS011;58809;47.984;7.964;2023-01-20T07:09:38;8.25;;;5.10;;
43700;SDS011;58809;47.984;7.964;2023-01-20T07:12:40;7.18;;;5.00;;
43700;SDS011;58809;47.984;7.964;2023-01-20T07:15:42;7.57;;;5.40;;
43700;SDS011;58809;47.984;7.964;2023-01-20T07:18:46;7.05;;;4.72;;
43700;SDS011;58809;47.984;7.964;2023-01-20T07:21:49;6.28;;;4.30;;
43700;SDS011;58809;47.984;7.964;2023-01-20T07:24:50;6.13;;;4.05;;
43700;SDS011;58809;47.984;7.964;2023-01-20T07:27:52;7.03;;;6.10;;
43700;SDS011;58809;47.984;7.964;2023-01-20T07:30:53;16.55;;;14.90;;
43700;SDS011;58809;47.984;7.964;2023-01-20T07:33:55;6.38;;;5.50;;
43700;SDS011;58809;47.984;7.964;2023-01-20T07:36:58;6.60;;;4.28;;
43700;SDS011;58809;47.984;7.964;2023-01-20T07:40:02;7.78;;;4.63;;
43700;SDS011;58809;47.984;7.964;2023-01-20T07:43:04;6.68;;;4.55;;
43700;SDS011;58809;47.984;7.964;2023-01-20T07:46:06;6.53;;;4.05;;
43700;SDS011;58809;47.984;7.964;2023-01-20T07:49:08;5.35;;;4.38;;
43700;SDS011;58809;47.984;7.964;2023-01-20T07:52:12;7.70;;;4.75;;
43700;SDS011;58809;47.984;7.964;2023-01-20T07:55:14;5.28;;;3.80;;
43700;SDS011;58809;47.984;7.964;2023-01-20T07:58:16;5.35;;;3.65;;
43700;SDS011;58809;47.984;7.964;2023-01-20T08:01:18;5.78;;;4.13;;
43700;SDS011;58809;47.984;7.964;2023-01-20T08:04:23;4.97;;;3.60;;
43700;SDS011;58809;47.984;7.964;2023-01-20T08:07:25;4.75;;;4.00;;
43700;SDS011;58809;47.984;7.964;2023-01-20T08:10:26;5.57;;;4.30;;
43700;SDS011;58809;47.984;7.964;2023-01-20T08:13:29;5.50;;;3.83;;
43700;SDS011;58809;47.984;7.964;2023-01-20T08:16:32;8.20;;;4.97;;
43700;SDS011;58809;47.984;7.964;2023-01-20T08:19:33;9.20;;;4.45;;
43700;SDS011;58809;47.984;7.964;2023-01-20T08:22:35;8.38;;;4.90;;
43700;SDS011;58809;47.984;7.964;2023-01-20T08:25:36;6.55;;;4.30;;
43700;SDS011;58809;47.984;7.964;2023-01-20T08:28:38;8.80;;;4.68;;
43700;SDS011;58809;47.984;7.964;2023-01-20T08:31:40;7.07;;;4.63;;
43700;SDS011;58809;47.984;7.964;2023-01-20T08:34:42;7.95;;;4.82;;
43700;SDS011;58809;47.984;7.964;2023-01-20T08:37:44;7.55;;;5.38;;
43700;SDS011;58809;47.984;7.964;2023-01-20T08:40:45;8.18;;;5.95;;
43700;SDS011;58809;47.984;7.964;2023-01-20T08:43:47;8.15;;;5.43;;
43700;SDS011;58809;47.984;7.964;2023-01-20T08:46:49;8.05;;;6.07;;
43700;SDS011;58809;47.984;7.964;2023-01-20T08:49:52;9.73;;;6.07;;
43700;SDS011;58809;47.984;7.964;2023-01-20T08:52:54;8.35;;;5.65;;
43700;SDS011;58809;47.984;7.964;2023-01-20T08:55:56;8.75;;;5.10;;
43700;SDS011;58809;47.984;7.964;2023-01-20T08:59:02;7.68;;;5.03;;
43700;SDS011;58809;47.984;7.964;2023-01-20T09:02:24;8.32;;;5.40;;
43700;SDS011;58809;47.984;7.964;2023-01-20T09:05:26;8.18;;;5.38;;
43700;SDS011;58809;47.984;7.964;2023-01-20T09:08:28;5.88;;;4.35;;
43700;SDS011;58809;47.984;7.964;2023-01-20T09:11:30;5.95;;;4.53;;
43700;SDS011;58809;47.984;7.964;2023-01-20T09:14:32;9.52;;;4.70;;
43700;SDS011;58809;47.984;7.964;2023-01-20T09:17:34;5.60;;;4.18;;
43700;SDS011;58809;47.984;7.964;2023-01-20T09:20:36;6.43;;;4.20;;
43700;SDS011;58809;47.984;7.964;2023-01-20T09:23:38;6.75;;;4.10;;
43700;SDS011;58809;47.984;7.964;2023-01-20T09:26:40;7.13;;;3.78;;
43700;SDS011;58809;47.984;7.964;2023-01-20T09:29:42;6.22;;;4.22;;
43700;SDS011;58809;47.984;7.964;2023-01-20T09:32:43;7.93;;;4.63;;
43700;SDS011;58809;47.984;7.964;2023-01-20T09:35:45;5.85;;;3.53;;
43700;SDS011;58809;47.984;7.964;2023-01-20T09:38:54;6.07;;;4.07;;
43700;SDS011;58809;47.984;7.964;2023-01-20T09:45:59;4.60;;;3.30;;
43700;SDS011;58809;47.984;7.964;2023-01-20T09:49:22;6.22;;;3.70;;
43700;SDS011;58809;47.984;7.964;2023-01-20T09:52:56;8.32;;;4.45;;
43700;SDS011;58809;47.984;7.964;2023-01-20T09:56:21;7.35;;;4.75;;
43700;SDS011;58809;47.984;7.964;2023-01-20T09:59:33;7.68;;;4.25;;
43700;SDS011;58809;47.984;7.964;2023-01-20T10:02:40;7.35;;;4.15;;
43700;SDS011;58809;47.984;7.964;2023-01-20T10:05:48;11.10;;;4.90;;
43700;SDS011;58809;47.984;7.964;2023-01-20T10:09:00;7.35;;;4.90;;
43700;SDS011;58809;47.984;7.964;2023-01-20T10:12:11;10.35;;;4.65;;
43700;SDS011;58809;47.984;7.964;2023-01-20T10:15:34;5.57;;;4.43;;
43700;SDS011;58809;47.984;7.964;2023-01-20T10:18:47;10.32;;;4.60;;
43700;SDS011;58809;47.984;7.964;2023-01-20T10:25:14;6.25;;;3.67;;
43700;SDS011;58809;47.984;7.964;2023-01-20T10:28:25;7.40;;;3.70;;
43700;SDS011;58809;47.984;7.964;2023-01-20T10:31:30;4.35;;;3.60;;
43700;SDS011;58809;47.984;7.964;2023-01-20T10:34:40;10.60;;;3.78;;
43700;SDS011;58809;47.984;7.964;2023-01-20T10:37:46;6.13;;;3.47;;
43700;SDS011;58809;47.984;7.964;2023-01-20T10:40:52;4.30;;;2.65;;
43700;SDS011;58809;47.984;7.964;2023-01-20T10:44:00;9.15;;;3.78;;
43700;SDS011;58809;47.984;7.964;2023-01-20T10:57:26;5.32;;;3.28;;
43700;SDS011;58809;47.984;7.964;2023-01-20T11:00:29;5.60;;;4.53;;
43700;SDS011;58809;47.984;7.964;2023-01-20T11:03:36;5.65;;;3.72;;
43700;SDS011;58809;47.984;7.964;2023-01-20T11:06:41;7.15;;;3.10;;
43700;SDS011;58809;47.984;7.964;2023-01-20T11:09:43;5.50;;;3.45;;
43700;SDS011;58809;47.984;7.964;2023-01-20T11:15:52;8.32;;;4.18;;
43700;SDS011;58809;47.984;7.964;2023-01-20T11:19:00;5.55;;;2.78;;
43700;SDS011;58809;47.984;7.964;2023-01-20T11:22:13;5.80;;;3.45;;
43700;SDS011;58809;47.984;7.964;2023-01-20T11:25:22;4.38;;;3.28;;
43700;SDS011;58809;47.984;7.964;2023-01-20T11:28:35;4.22;;;3.83;;
43700;SDS011;58809;47.984;7.964;2023-01-20T11:31:50;7.82;;;4.95;;
43700;SDS011;58809;47.984;7.964;2023-01-20T11:34:55;8.70;;;6.95;;
43700;SDS011;58809;47.984;7.964;2023-01-20T11:37:59;14.90;;;8.73;;
43700;SDS011;58809;47.984;7.964;2023-01-20T11:44:23;12.43;;;9.23;;
43700;SDS011;58809;47.984;7.964;2023-01-20T11:47:27;10.77;;;8.50;;
43700;SDS011;58809;47.984;7.964;2023-01-20T11:53:46;16.50;;;11.32;;
43700;SDS011;58809;47.984;7.964;2023-01-20T11:56:50;23.35;;;14.77;;
43700;SDS011;58809;47.984;7.964;2023-01-20T11:59:54;21.30;;;12.98;;
43700;SDS011;58809;47.984;7.964;2023-01-20T12:03:10;17.05;;;12.55;;
43700;SDS011;58809;47.984;7.964;2023-01-20T12:06:25;20.52;;;13.57;;
43700;SDS011;58809;47.984;7.964;2023-01-20T12:09:31;17.33;;;11.73;;
43700;SDS011;58809;47.984;7.964;2023-01-20T12:15:52;15.23;;;11.18;;
43700;SDS011;58809;47.984;7.964;2023-01-20T12:18:56;18.77;;;10.40;;
43700;SDS011;58809;47.984;7.964;2023-01-20T12:22:04;16.70;;;11.23;;
43700;SDS011;58809;47.984;7.964;2023-01-20T12:25:18;15.02;;;11.27;;
43700;SDS011;58809;47.984;7.964;2023-01-20T12:31:51;15.07;;;11.40;;
43700;SDS011;58809;47.984;7.964;2023-01-20T12:34:54;13.05;;;9.25;;
43700;SDS011;58809;47.984;7.964;2023-01-20T12:37:58;11.18;;;7.90;;
43700;SDS011;58809;47.984;7.964;2023-01-20T12:41:12;11.13;;;8.43;;
43700;SDS011;58809;47.984;7.964;2023-01-20T12:57:57;7.15;;;5.88;;
43700;SDS011;58809;47.984;7.964;2023-01-20T13:07:48;10.43;;;7.60;;
43700;SDS011;58809;47.984;7.964;2023-01-20T13:14:50;12.77;;;8.18;;
43700;SDS011;58809;47.984;7.964;2023-01-20T13:18:05;10.63;;;7.63;;
43700;SDS011;58809;47.984;7.964;2023-01-20T13:21:30;13.15;;;7.57;;
43700;SDS011;58809;47.984;7.964;2023-01-20T13:24:33;9.93;;;7.33;;
43700;SDS011;58809;47.984;7.964;2023-01-20T13:27:35;12.40;;;7.53;;
43700;SDS011;58809;47.984;7.964;2023-01-20T13:30:42;9.73;;;6.15;;
43700;SDS011;58809;47.984;7.964;2023-01-20T13:33:48;8.95;;;6.40;;
43700;SDS011;58809;47.984;7.964;2023-01-20T13:46:44;11.20;;;7.93;;
43700;SDS011;58809;47.984;7.964;2023-01-20T13:49:51;8.95;;;7.18;;
43700;SDS011;58809;47.984;7.964;2023-01-20T13:59:35;11.32;;;7.35;;
43700;SDS011;58809;47.984;7.964;2023-01-20T14:02:37;9.30;;;6.82;;
43700;SDS011;58809;47.984;7.964;2023-01-20T14:05:41;12.65;;;7.70;;
43700;SDS011;58809;47.984;7.964;2023-01-20T14:08:44;9.35;;;6.30;;
43700;SDS011;58809;47.984;7.964;2023-01-20T14:11:48;11.18;;;5.97;;
43700;SDS011;58809;47.984;7.964;2023-01-20T14:14:52;10.18;;;7.38;;
43700;SDS011;58809;47.984;7.964;2023-01-20T14:17:55;10.93;;;6.97;;
43700;SDS011;58809;47.984;7.964;2023-01-20T14:21:00;10.65;;;8.10;;
43700;SDS011;58809;47.984;7.964;2023-01-20T14:24:04;14.05;;;8.10;;
43700;SDS011;58809;47.984;7.964;2023-01-20T14:27:19;13.30;;;8.40;;
43700;SDS011;58809;47.984;7.964;2023-01-20T14:30:25;12.35;;;8.43;;
43700;SDS011;58809;47.984;7.964;2023-01-20T14:33:27;10.93;;;7.22;;
43700;SDS011;58809;47.984;7.964;2023-01-20T14:36:30;9.32;;;7.32;;
43700;SDS011;58809;47.984;7.964;2023-01-20T14:39:33;11.95;;;7.70;;
43700;SDS011;58809;47.984;7.964;2023-01-20T14:42:35;8.32;;;5.97;;
43700;SDS011;58809;47.984;7.964;2023-01-20T14:45:40;6.93;;;5.03;;
43700;SDS011;58809;47.984;7.964;2023-01-20T14:48:44;6.53;;;4.93;;
43700;SDS011;58809;47.984;7.964;2023-01-20T14:51:47;7.35;;;4.47;;
43700;SDS011;58809;47.984;7.964;2023-01-20T14:54:50;6.97;;;4.40;;
43700;SDS011;58809;47.984;7.964;2023-01-20T14:57:53;4.45;;;3.13;;
43700;SDS011;58809;47.984;7.964;2023-01-20T15:00:57;4.18;;;2.80;;
43700;SDS011;58809;47.984;7.964;2023-01-20T15:04:02;8.82;;;3.28;;
43700;SDS011;58809;47.984;7.964;2023-01-20T15:07:11;4.40;;;3.15;;
43700;SDS011;58809;47.984;7.964;2023-01-20T15:10:18;5.57;;;3.80;;
43700;SDS011;58809;47.984;7.964;2023-01-20T15:13:20;9.20;;;4.05;;
43700;SDS011;58809;47.984;7.964;2023-01-20T15:19:37;6.00;;;4.10;;
43700;SDS011;58809;47.984;7.964;2023-01-20T15:22:46;5.45;;;3.80;;
43700;SDS011;58809;47.984;7.964;2023-01-20T15:25:49;7.63;;;4.22;;
43700;SDS011;58809;47.984;7.964;2023-01-20T15:28:52;5.85;;;4.43;;
43700;SDS011;58809;47.984;7.964;2023-01-20T15:31:56;7.38;;;4.97;;
43700;SDS011;58809;47.984;7.964;2023-01-20T15:38:00;11.63;;;6.25;;
43700;SDS011;58809;47.984;7.964;2023-01-20T15:41:02;10.27;;;4.32;;
43700;SDS011;58809;47.984;7.964;2023-01-20T15:44:03;7.63;;;4.03;;
43700;SDS011;58809;47.984;7.964;2023-01-20T15:47:21;7.78;;;5.38;;
43700;SDS011;58809;47.984;7.964;2023-01-20T15:50:29;11.13;;;4.88;;
43700;SDS011;58809;47.984;7.964;2023-01-20T15:53:34;15.82;;;7.85;;
43700;SDS011;58809;47.984;7.964;2023-01-20T15:56:36;6.85;;;4.93;;
43700;SDS011;58809;47.984;7.964;2023-01-20T15:59:41;10.80;;;5.60;;
43700;SDS011;58809;47.984;7.964;2023-01-20T16:02:46;10.85;;;6.60;;
43700;SDS011;58809;47.984;7.964;2023-01-20T16:05:48;11.10;;;5.90;;
43700;SDS011;58809;47.984;7.964;2023-01-20T16:08:52;8.00;;;5.65;;
43700;SDS011;58809;47.984;7.964;2023-01-20T16:11:53;7.65;;;5.40;;
43700;SDS011;58809;47.984;7.964;2023-01-20T16:14:55;9.07;;;4.93;;
43700;SDS011;58809;47.984;7.964;2023-01-20T16:17:57;6.47;;;4.70;;
43700;SDS011;58809;47.984;7.964;2023-01-20T16:20:58;8.80;;;5.68;;
43700;SDS011;58809;47.984;7.964;2023-01-20T16:24:00;7.18;;;5.20;;
43700;SDS011;58809;47.984;7.964;2023-01-20T16:27:02;8.63;;;4.60;;
43700;SDS011;58809;47.984;7.964;2023-01-20T16:30:17;8.20;;;4.22;;
43700;SDS011;58809;47.984;7.964;2023-01-20T16:33:21;6.85;;;4.80;;
43700;SDS011;58809;47.984;7.964;2023-01-20T16:36:24;12.05;;;5.00;;
43700;SDS011;58809;47.984;7.964;2023-01-20T16:39:26;8.57;;;4.53;;
43700;SDS011;58809;47.984;7.964;2023-01-20T16:42:27;14.60;;;4.90;;
43700;SDS011;58809;47.984;7.964;2023-01-20T16:45:29;8.30;;;5.40;;
43700;SDS011;58809;47.984;7.964;2023-01-20T16:48:31;12.07;;;6.45;;
43700;SDS011;58809;47.984;7.964;2023-01-20T16:51:33;11.00;;;6.20;;
43700;SDS011;58809;47.984;7.964;2023-01-20T16:54:34;11.93;;;6.32;;
43700;SDS011;58809;47.984;7.964;2023-01-20T16:57:36;11.93;;;6.00;;
43700;SDS011;58809;47.984;7.964;2023-01-20T17:00:38;6.75;;;5.10;;
43700;SDS011;58809;47.984;7.964;2023-01-20T17:03:40;12.50;;;4.78;;
43700;SDS011;58809;47.984;7.964;2023-01-20T17:06:42;6.40;;;4.10;;
43700;SDS011;58809;47.984;7.964;2023-01-20T17:09:44;6.35;;;4.70;;
43700;SDS011;58809;47.984;7.964;2023-01-20T17:13:09;9.57;;;4.78;;
43700;SDS011;58809;47.984;7.964;2023-01-20T17:16:10;12.25;;;6.45;;
43700;SDS011;58809;47.984;7.964;2023-01-20T17:19:12;12.20;;;5.38;;
43700;SDS011;58809;47.984;7.964;2023-01-20T17:22:16;10.38;;;6.38;;
43700;SDS011;58809;47.984;7.964;2023-01-20T17:25:18;6.00;;;4.60;;
43700;SDS011;58809;47.984;7.964;2023-01-20T17:28:20;16.15;;;7.13;;
43700;SDS011;58809;47.984;7.964;2023-01-20T17:31:21;12.07;;;7.78;;
43700;SDS011;58809;47.984;7.964;2023-01-20T17:34:24;10.20;;;6.30;;
43700;SDS011;58809;47.984;7.964;2023-01-20T17:37:25;10.75;;;4.55;;
43700;SDS011;58809;47.984;7.964;2023-01-20T17:40:27;7.88;;;4.53;;
43700;SDS011;58809;47.984;7.964;2023-01-20T17:43:35;7.65;;;4.95;;
43700;SDS011;58809;47.984;7.964;2023-01-20T17:46:38;7.47;;;4.85;;
43700;SDS011;58809;47.984;7.964;2023-01-20T17:49:40;7.82;;;5.25;;
43700;SDS011;58809;47.984;7.964;2023-01-20T17:52:41;8.95;;;5.57;;
43700;SDS011;58809;47.984;7.964;2023-01-20T17:55:43;15.32;;;8.85;;
43700;SDS011;58809;47.984;7.964;2023-01-20T17:58:45;10.82;;;7.03;;
43700;SDS011;58809;47.984;7.964;2023-01-20T18:01:47;10.50;;;6.43;;
43700;SDS011;58809;47.984;7.964;2023-01-20T18:04:52;9.63;;;5.40;;
43700;SDS011;58809;47.984;7.964;2023-01-20T18:07:54;9.63;;;5.40;;
43700;SDS011;58809;47.984;7.964;2023-01-20T18:10:59;9.13;;;5.55;;
43700;SDS011;58809;47.984;7.964;2023-01-20T18:14:05;8.80;;;5.47;;
43700;SDS011;58809;47.984;7.964;2023-01-20T18:17:07;9.52;;;5.68;;
43700;SDS011;58809;47.984;7.964;2023-01-20T18:20:09;7.00;;;5.15;;
43700;SDS011;58809;47.984;7.964;2023-01-20T18:23:12;9.07;;;6.80;;
43700;SDS011;58809;47.984;7.964;2023-01-20T18:26:14;11.35;;;7.85;;
43700;SDS011;58809;47.984;7.964;2023-01-20T18:29:17;9.27;;;8.17;;
43700;SDS011;58809;47.984;7.964;2023-01-20T18:32:18;9.05;;;6.95;;
43700;SDS011;58809;47.984;7.964;2023-01-20T18:35:20;11.80;;;7.47;;
43700;SDS011;58809;47.984;7.964;2023-01-20T18:38:21;9.55;;;7.45;;
43700;SDS011;58809;47.984;7.964;2023-01-20T18:41:23;8.25;;;5.80;;
43700;SDS011;58809;47.984;7.964;2023-01-20T18:44:27;9.85;;;5.88;;
43700;SDS011;58809;47.984;7.964;2023-01-20T18:47:28;7.07;;;5.80;;
43700;SDS011;58809;47.984;7.964;2023-01-20T18:50:30;11.70;;;6.55;;
43700;SDS011;58809;47.984;7.964;2023-01-20T18:53:31;9.13;;;5.82;;
43700;SDS011;58809;47.984;7.964;2023-01-20T18:56:33;11.88;;;7.68;;
43700;SDS011;58809;47.984;7.964;2023-01-20T18:59:35;13.05;;;9.50;;
43700;SDS011;58809;47.984;7.964;2023-01-20T19:02:37;16.90;;;10.05;;
43700;SDS011;58809;47.984;7.964;2023-01-20T19:05:38;11.60;;;8.10;;
43700;SDS011;58809;47.984;7.964;2023-01-20T19:08:40;8.80;;;6.65;;
43700;SDS011;58809;47.984;7.964;2023-01-20T19:11:43;8.88;;;5.60;;
43700;SDS011;58809;47.984;7.964;2023-01-20T19:14:44;9.65;;;6.47;;
43700;SDS011;58809;47.984;7.964;2023-01-20T19:17:46;8.52;;;6.18;;
43700;SDS011;58809;47.984;7.964;2023-01-20T19:20:48;9.45;;;5.38;;
43700;SDS011;58809;47.984;7.964;2023-01-20T19:23:54;8.10;;;6.10;;
43700;SDS011;58809;47.984;7.964;2023-01-20T19:26:56;9.35;;;5.50;;
43700;SDS011;58809;47.984;7.964;2023-01-20T19:30:00;10.60;;;6.18;;
43700;SDS011;58809;47.984;7.964;2023-01-20T19:33:02;8.18;;;6.00;;
43700;SDS011;58809;47.984;7.964;2023-01-20T19:36:05;7.53;;;5.50;;
43700;SDS011;58809;47.984;7.964;2023-01-20T19:42:10;9.73;;;6.53;;
43700;SDS011;58809;47.984;7.964;2023-01-20T19:45:12;8.82;;;6.88;;
43700;SDS011;58809;47.984;7.964;2023-01-20T19:48:13;7.80;;;6.30;;
43700;SDS011;58809;47.984;7.964;2023-01-20T19:51:15;10.10;;;7.50;;
43700;SDS011;58809;47.984;7.964;2023-01-20T19:54:17;14.05;;;12.55;;
43700;SDS011;58809;47.984;7.964;2023-01-20T19:57:19;9.25;;;6.35;;
43700;SDS011;58809;47.984;7.964;2023-01-20T20:00:20;9.27;;;7.05;;
43700;SDS011;58809;47.984;7.964;2023-01-20T20:03:22;8.68;;;6.80;;
43700;SDS011;58809;47.984;7.964;2023-01-20T20:09:25;10.10;;;7.03;;
43700;SDS011;58809;47.984;7.964;2023-01-20T20:12:27;9.82;;;7.97;;
43700;SDS011;58809;47.984;7.964;2023-01-20T20:15:29;10.05;;;6.20;;
43700;SDS011;58809;47.984;7.964;2023-01-20T20:18:31;11.63;;;6.53;;